Time;durP1;ratioP1;P1;durP2;ratioP2;P2;SDS_P1;SDS_P2;PMS_P1;PMS_P2;Temp;Humidity;BMP_temperature;BMP_pressure;BME280_temperature;BME280_humidity;BME280_pressure;Samples;Min_cycle;Max_cycle;Signal;HPM_P1;HPM_P2
2021/11/15 00:01:25;;;;;;;24.23;15.80;;;;;;;7.34;100.00;102589.38;10566757;28;20048;-83
2021/11/15 00:06:26;;;;;;;30.77;18.05;;;;;;;7.27;100.00;102588.16;10581189;28;20132;-83
2021/11/15 00:11:30;;;;;;;24.73;16.75;;;;;;;7.33;100.00;102580.78;10567401;28;20502;-83
2021/11/15 00:16:32;;;;;;;25.90;16.48;;;;;;;7.34;100.00;102576.50;10541742;28;20089;-83
2021/11/15 00:21:33;;;;;;;27.02;18.15;;;;;;;7.25;100.00;102582.00;10556163;28;20052;-83
2021/11/15 00:26:35;;;;;;;26.20;17.83;;;;;;;7.29;100.00;102583.09;10568021;28;20054;-83
2021/11/15 00:31:37;;;;;;;23.63;16.70;;;;;;;7.31;100.00;102581.47;10567230;28;20044;-83
2021/11/15 00:36:39;;;;;;;28.08;17.33;;;;;;;7.28;100.00;102565.88;10563918;28;20083;-83
2021/11/15 00:41:40;;;;;;;27.55;18.00;;;;;;;7.25;100.00;102563.09;10539642;28;20056;-83
2021/11/15 00:46:42;;;;;;;28.80;18.00;;;;;;;7.25;100.00;102563.09;10554484;28;20127;-84
2021/11/15 00:51:43;;;;;;;28.08;17.88;;;;;;;7.22;100.00;102558.69;10559371;28;20055;-83
2021/11/15 00:56:45;;;;;;;27.40;17.85;;;;;;;7.18;100.00;102567.91;10560307;28;20463;-83
2021/11/15 01:01:47;;;;;;;25.00;17.05;;;;;;;7.21;100.00;102566.34;10555820;28;20525;-83
2021/11/15 01:06:48;;;;;;;24.65;16.25;;;;;;;7.20;100.00;102569.69;10575996;28;20040;-84
2021/11/15 01:11:52;;;;;;;24.45;17.05;;;;;;;7.15;100.00;102564.31;10576903;28;20047;-83
2021/11/15 01:16:53;;;;;;;24.42;16.73;;;;;;;7.14;100.00;102563.38;10544561;28;20046;-84
2021/11/15 01:21:55;;;;;;;27.17;17.33;;;;;;;7.13;100.00;102553.91;10545332;28;20192;-84
2021/11/15 01:26:57;;;;;;;26.83;16.65;;;;;;;7.12;100.00;102557.28;10558304;28;20123;-83
2021/11/15 01:32:00;;;;;;;25.15;16.27;;;;;;;7.09;100.00;102569.06;10563560;28;20499;-83
2021/11/15 01:37:02;;;;;;;21.92;16.73;;;;;;;7.10;100.00;102564.03;10559391;28;20048;-84
2021/11/15 01:42:03;;;;;;;24.77;15.80;;;;;;;7.04;100.00;102579.13;10571432;28;20541;-83
2021/11/15 01:47:05;;;;;;;24.52;17.48;;;;;;;7.02;100.00;102578.13;10573568;28;20063;-84
2021/11/15 01:52:07;;;;;;;25.95;17.88;;;;;;;7.02;100.00;102564.38;10582043;28;20062;-83
2021/11/15 01:57:09;;;;;;;25.23;17.02;;;;;;;6.98;100.00;102571.06;10561079;27;20059;-83
2021/11/15 02:02:11;;;;;;;22.63;15.98;;;;;;;6.99;100.00;102556.50;10562771;28;20426;-83
2021/11/15 02:07:13;;;;;;;23.73;17.23;;;;;;;6.92;100.00;102557.84;10572918;28;20534;-83
2021/11/15 02:12:15;;;;;;;24.27;17.13;;;;;;;6.95;100.00;102559.69;10565590;28;20060;-83
2021/11/15 02:17:17;;;;;;;27.17;17.50;;;;;;;6.91;100.00;102550.91;10568503;28;20050;-83
2021/11/15 02:22:18;;;;;;;25.98;18.40;;;;;;;6.89;100.00;102545.69;10572829;28;20051;-81
2021/11/15 02:27:20;;;;;;;29.70;18.27;;;;;;;6.88;100.00;102545.59;10585442;28;20044;-81
2021/11/15 02:32:22;;;;;;;26.65;18.20;;;;;;;6.84;100.00;102541.94;10565274;28;20054;-80
2021/11/15 02:37:23;;;;;;;30.98;20.55;;;;;;;6.83;100.00;102535.03;10565027;28;20047;-80
2021/11/15 02:42:25;;;;;;;33.50;20.13;;;;;;;6.83;100.00;102523.88;10566771;28;20056;-81
2021/11/15 02:47:27;;;;;;;30.35;19.17;;;;;;;6.82;100.00;102522.97;10556597;28;20077;-80
2021/11/15 02:52:28;;;;;;;30.08;19.23;;;;;;;6.80;100.00;102527.13;10569175;28;20135;-80
2021/11/15 02:57:30;;;;;;;30.77;19.95;;;;;;;6.79;100.00;102525.38;10568992;28;20052;-81
2021/11/15 03:02:32;;;;;;;30.90;19.58;;;;;;;6.80;100.00;102524.56;10582119;28;20047;-80
2021/11/15 03:07:34;;;;;;;32.63;21.15;;;;;;;6.79;100.00;102527.06;10560052;28;20078;-80
2021/11/15 03:12:35;;;;;;;33.55;20.85;;;;;;;6.80;100.00;102532.28;10574054;28;20051;-81
2021/11/15 03:17:40;;;;;;;36.13;22.05;;;;;;;6.77;100.00;102528.66;10566132;28;20044;-81
2021/11/15 03:22:41;;;;;;;31.90;21.88;;;;;;;6.79;100.00;102521.91;10528837;28;20144;-81
2021/11/15 03:27:43;;;;;;;35.85;21.48;;;;;;;6.78;100.00;102525.28;10550213;28;20048;-81
2021/11/15 03:32:46;;;;;;;37.33;22.75;;;;;;;6.78;100.00;102533.00;10549095;28;20147;-81
2021/11/15 03:37:48;;;;;;;35.15;22.08;;;;;;;6.77;100.00;102526.09;10551853;28;20052;-81
2021/11/15 03:42:59;;;;;;;37.72;23.23;;;;;;;6.72;100.00;102517.22;10537589;28;20054;-80
2021/11/15 03:48:01;;;;;;;34.65;22.58;;;;;;;6.73;100.00;102513.84;10550892;28;20093;-80
2021/11/15 03:53:05;;;;;;;39.35;25.05;;;;;;;6.68;100.00;102526.44;10559544;28;20070;-80
2021/11/15 03:58:07;;;;;;;36.40;23.70;;;;;;;6.61;100.00;102522.63;10548989;28;20044;-80
2021/11/15 04:03:20;;;;;;;32.53;22.77;;;;;;;6.64;100.00;102529.66;10522117;28;20048;-80
2021/11/15 04:08:23;;;;;;;37.80;23.27;;;;;;;6.61;100.00;102527.78;10547150;28;20058;-80
2021/11/15 04:13:34;;;;;;;38.35;24.73;;;;;;;6.56;100.00;102539.47;10542595;28;20060;-80
2021/11/15 04:18:40;;;;;;;35.33;22.58;;;;;;;6.62;100.00;102544.97;10522063;28;20059;-81
2021/11/15 04:23:41;;;;;;;41.33;25.63;;;;;;;6.52;100.00;102534.97;10542773;28;20411;-81
2021/11/15 04:28:43;;;;;;;36.00;23.58;;;;;;;6.56;100.00;102539.47;10568716;28;20060;-80
2021/11/15 04:33:45;;;;;;;38.80;24.27;;;;;;;6.53;100.00;102539.31;10557281;28;20055;-80
2021/11/15 04:38:46;;;;;;;39.17;26.95;;;;;;;6.54;100.00;102537.63;10550933;28;20051;-80
2021/11/15 04:43:48;;;;;;;39.15;22.70;;;;;;;6.57;100.00;102532.63;10558080;28;20061;-80
2021/11/15 04:48:51;;;;;;;39.28;24.50;;;;;;;6.54;100.00;102540.19;10547794;28;20052;-80
2021/11/15 04:53:52;;;;;;;37.30;24.40;;;;;;;6.55;100.00;102534.25;10549443;28;20394;-80
2021/11/15 04:58:54;;;;;;;43.63;25.30;;;;;;;6.60;100.00;102545.69;10557711;28;20060;-80
2021/11/15 05:03:55;;;;;;;39.42;26.98;;;;;;;6.50;100.00;102545.94;10562296;28;20052;-80
2021/11/15 05:08:58;;;;;;;38.65;25.98;;;;;;;6.52;100.00;102540.09;10556669;28;20052;-80
2021/11/15 05:13:59;;;;;;;38.33;25.63;;;;;;;6.56;100.00;102538.59;10558776;28;20051;-80
2021/11/15 05:19:01;;;;;;;43.08;26.27;;;;;;;6.56;100.00;102541.16;10557560;28;20126;-80
2021/11/15 05:24:03;;;;;;;44.08;27.77;;;;;;;6.54;100.00;102543.66;10561506;28;20040;-80
2021/11/15 05:29:05;;;;;;;44.88;26.40;;;;;;;6.55;100.00;102532.56;10568195;28;20055;-81
2021/11/15 05:34:07;;;;;;;40.47;26.42;;;;;;;6.59;100.00;102541.34;10577747;28;20044;-81
2021/11/15 05:39:09;;;;;;;40.10;26.30;;;;;;;6.49;100.00;102542.47;10576690;28;20052;-80
2021/11/15 05:44:11;;;;;;;41.60;25.73;;;;;;;6.52;100.00;102545.25;10550811;28;20067;-80
2021/11/15 05:49:12;;;;;;;41.13;25.40;;;;;;;6.51;100.00;102542.56;10555134;28;20126;-81
2021/11/15 05:54:14;;;;;;;42.63;25.58;;;;;;;6.48;100.00;102538.16;10568078;28;20048;-80
2021/11/15 05:59:16;;;;;;;39.20;25.00;;;;;;;6.49;100.00;102555.34;10565207;28;20492;-80
2021/11/15 06:04:17;;;;;;;40.83;26.13;;;;;;;6.44;100.00;102551.59;10562981;28;20052;-80
2021/11/15 06:09:19;;;;;;;41.97;24.42;;;;;;;6.39;100.00;102545.31;10579255;28;20055;-80
2021/11/15 06:14:21;;;;;;;39.58;23.42;;;;;;;6.38;100.00;102541.84;10565301;28;20055;-80
2021/11/15 06:19:22;;;;;;;38.03;23.38;;;;;;;6.40;100.00;102547.06;10561997;28;20058;-81
2021/11/15 06:24:24;;;;;;;38.08;23.20;;;;;;;6.35;100.00;102556.19;10535791;28;20052;-80
2021/11/15 06:29:25;;;;;;;37.78;22.73;;;;;;;6.40;100.00;102559.03;10553438;28;20059;-80
2021/11/15 06:34:27;;;;;;;40.40;24.45;;;;;;;6.41;100.00;102564.28;10540870;28;20046;-79
2021/11/15 06:39:30;;;;;;;35.08;22.35;;;;;;;6.36;100.00;102560.56;10563770;28;20112;-80
2021/11/15 06:44:31;;;;;;;38.92;23.75;;;;;;;6.37;100.00;102563.22;10536983;28;20048;-80
2021/11/15 06:49:34;;;;;;;39.60;24.08;;;;;;;6.37;100.00;102568.34;10533726;28;20080;-81
2021/11/15 06:54:35;;;;;;;38.00;23.58;;;;;;;6.37;100.00;102570.91;10567077;28;20515;-81
2021/11/15 06:59:37;;;;;;;43.53;25.42;;;;;;;6.35;100.00;102574.19;10538094;28;20579;-80
2021/11/15 07:04:39;;;;;;;42.05;24.60;;;;;;;6.37;100.00;102572.59;10552973;28;20554;-81
2021/11/15 07:09:45;;;;;;;37.25;23.77;;;;;;;6.38;100.00;102571.81;10540871;28;20047;-81
2021/11/15 07:14:47;;;;;;;37.85;23.05;;;;;;;6.33;100.00;102576.66;10524350;28;20407;-81
2021/11/15 07:19:49;;;;;;;34.67;22.85;;;;;;;6.30;100.00;102580.75;10531589;28;20051;-81
2021/11/15 07:25:05;;;;;;;39.15;25.13;;;;;;;6.33;100.00;102573.22;10565880;28;20499;-81
2021/11/15 07:30:08;;;;;;;42.05;26.92;;;;;;;6.33;100.00;102580.94;10543174;28;20062;-82
2021/11/15 07:35:10;;;;;;;42.22;24.38;;;;;;;6.33;100.00;102576.66;10555232;28;20059;-82
2021/11/15 07:40:15;;;;;;;38.33;23.40;;;;;;;6.34;100.00;102572.41;10537551;28;20055;-81
2021/11/15 07:45:18;;;;;;;38.80;23.88;;;;;;;6.35;100.00;102569.03;10522606;28;20155;-81
2021/11/15 07:50:20;;;;;;;41.13;24.42;;;;;;;6.28;100.00;102565.22;10537688;28;20054;-81
2021/11/15 07:55:21;;;;;;;38.47;24.25;;;;;;;6.30;100.00;102571.38;10534279;28;20050;-81
2021/11/15 08:00:24;;;;;;;43.88;23.10;;;;;;;6.26;100.00;102583.94;10523809;28;20055;-81
2021/11/15 08:05:26;;;;;;;40.90;23.80;;;;;;;6.28;100.00;102590.91;10546590;28;20066;-81
2021/11/15 08:10:28;;;;;;;35.75;22.25;;;;;;;6.22;100.00;102593.13;10535736;28;20056;-82
2021/11/15 08:15:30;;;;;;;33.20;20.83;;;;;;;6.13;100.00;102605.44;10579292;28;20130;-82
2021/11/15 08:20:35;;;;;;;39.47;22.75;;;;;;;6.19;100.00;102598.09;10579695;28;20047;-82
2021/11/15 08:26:05;;;;;;;38.47;22.02;;;;;;;6.13;100.00;102587.44;10555612;28;20044;-82
2021/11/15 08:31:08;;;;;;;37.35;22.52;;;;;;;6.18;100.00;102587.69;10554104;28;20048;-82
2021/11/15 08:36:10;;;;;;;42.53;23.73;;;;;;;6.16;100.00;102581.59;10576288;28;20498;-82
2021/11/15 08:41:15;;;;;;;35.67;22.50;;;;;;;6.09;100.00;102580.34;10530046;28;20515;-82
2021/11/15 08:46:19;;;;;;;36.75;23.10;;;;;;;6.07;100.00;102579.38;10518979;28;20063;-82
2021/11/15 08:51:21;;;;;;;41.63;25.50;;;;;;;6.11;100.00;102571.03;10522293;28;20085;-82
2021/11/15 08:56:23;;;;;;;36.53;23.67;;;;;;;6.17;100.00;102570.50;10527236;28;20490;-82
2021/11/15 09:01:45;;;;;;;36.65;22.73;;;;;;;6.10;100.00;102575.28;10520762;28;20052;-82
2021/11/15 09:06:47;;;;;;;42.30;25.23;;;;;;;6.06;100.00;102595.53;10543509;28;20051;-82
2021/11/15 09:11:52;;;;;;;35.17;23.10;;;;;;;6.14;100.00;102588.31;10549779;28;20048;-82
2021/11/15 09:16:53;;;;;;;39.83;23.98;;;;;;;5.99;100.00;102580.56;10543319;28;20039;-82
2021/11/15 09:21:56;;;;;;;35.50;20.90;;;;;;;5.88;100.00;102587.56;10525061;28;20056;-82
2021/11/15 09:27:02;;;;;;;37.47;21.58;;;;;;;5.91;100.00;102590.38;10525779;28;20044;-82
2021/11/15 09:32:04;;;;;;;36.07;20.80;;;;;;;5.85;100.00;102592.53;10538818;28;20150;-82
2021/11/15 09:37:14;;;;;;;33.33;20.02;;;;;;;5.86;100.00;102591.72;10558863;28;20785;-83
2021/11/15 09:42:16;;;;;;;38.03;20.98;;;;;;;5.91;100.00;102599.72;10534385;28;20043;-83
2021/11/15 09:47:19;;;;;;;37.28;21.63;;;;;;;5.87;100.00;102601.19;10557669;28;20138;-83
2021/11/15 09:52:21;;;;;;;36.38;21.00;;;;;;;5.88;100.00;102602.97;10554625;28;20052;-83
2021/11/15 09:57:22;;;;;;;30.70;18.90;;;;;;;5.74;100.00;102593.53;10542571;28;20097;-84
2021/11/15 10:02:25;;;;;;;25.42;16.05;;;;;;;5.71;100.00;102594.22;10574048;28;20056;-84
2021/11/15 10:07:43;;;;;;;22.58;13.55;;;;;;;5.78;100.00;102582.63;10565539;28;20044;-83
2021/11/15 10:13:07;;;;;;;28.95;14.82;;;;;;;5.78;100.00;102582.63;10548024;28;20062;-82
2021/11/15 10:18:12;;;;;;;19.85;11.82;;;;;;;5.72;100.00;102584.84;10574171;28;20127;-82
2021/11/15 10:23:25;;;;;;;18.92;11.38;;;;;;;5.69;100.00;102580.41;10564335;28;20048;-82
2021/11/15 10:28:30;;;;;;;18.92;11.50;;;;;;;5.83;100.00;102584.69;10564185;28;20047;-83
2021/11/15 10:33:35;;;;;;;24.38;11.63;;;;;;;5.79;100.00;102584.44;10550044;28;20048;-82
2021/11/15 10:38:46;;;;;;;21.55;12.05;;;;;;;5.74;100.00;102575.56;10542398;28;20048;-81
2021/11/15 10:43:57;;;;;;;19.08;12.00;;;;;;;5.74;100.00;102573.00;10564230;28;20063;-82
2021/11/15 10:49:00;;;;;;;25.48;13.43;;;;;;;5.74;100.00;102566.19;10549807;28;20046;-82
2021/11/15 10:54:02;;;;;;;27.85;14.68;;;;;;;5.61;100.00;102578.13;10523985;28;20080;-82
2021/11/15 10:59:12;;;;;;;25.52;14.10;;;;;;;5.66;100.00;102585.34;10541916;28;20393;-82
2021/11/15 11:04:22;;;;;;;26.35;15.55;;;;;;;5.69;100.00;102585.53;10551815;28;20408;-81
2021/11/15 11:09:39;;;;;;;33.97;18.38;;;;;;;5.63;100.00;102571.44;10546226;28;20055;-82
2021/11/15 11:14:43;;;;;;;33.25;19.63;;;;;;;5.53;100.00;102581.13;10548740;28;20055;-83
2021/11/15 11:20:09;;;;;;;34.60;19.38;;;;;;;5.47;100.00;102561.88;10573670;28;20385;-82
2021/11/15 11:25:14;;;;;;;36.03;19.85;;;;;;;5.48;100.00;102566.22;10569512;28;20051;-82
2021/11/15 11:30:16;;;;;;;36.15;20.38;;;;;;;5.49;100.00;102555.16;10531796;28;20058;-83
2021/11/15 11:35:18;;;;;;;32.78;18.95;;;;;;;5.40;100.00;102540.06;10537474;28;20051;-83
2021/11/15 11:40:21;;;;;;;35.50;18.42;;;;;;;5.38;100.00;102530.50;10552277;28;20051;-82
2021/11/15 11:45:26;;;;;;;40.55;23.75;;;;;;;5.49;100.00;102537.19;10541721;28;20484;-82
2021/11/15 11:50:29;;;;;;;34.80;19.20;;;;;;;5.29;100.00;102525.69;10560087;28;20052;-82
2021/11/15 11:55:34;;;;;;;35.50;19.65;;;;;;;5.39;100.00;102528.03;10550817;28;20070;-82
2021/11/15 12:00:38;;;;;;;31.95;17.70;;;;;;;5.34;100.00;102531.09;10555508;28;20056;-83
2021/11/15 12:05:40;;;;;;;35.13;21.27;;;;;;;5.36;100.00;102526.94;10565726;28;20047;-83
2021/11/15 12:10:54;;;;;;;35.70;17.52;;;;;;;5.43;100.00;102519.72;10549051;28;20052;-82
2021/11/15 12:16:01;;;;;;;34.58;18.55;;;;;;;5.45;100.00;102532.69;10550650;28;20046;-82
2021/11/15 12:21:10;;;;;;;31.13;18.52;;;;;;;5.39;100.00;102528.03;10536046;28;20140;-82
2021/11/15 12:26:26;;;;;;;36.10;18.52;;;;;;;5.36;100.00;102522.69;10538608;28;20454;-82
2021/11/15 12:31:47;;;;;;;25.77;13.10;;;;;;;5.35;100.00;102520.94;10539136;28;20054;-83
2021/11/15 12:36:53;;;;;;;20.40;12.65;;;;;;;5.45;100.00;102513.03;10542190;28;20044;-82
2021/11/15 12:42:00;;;;;;;24.13;14.23;;;;;;;5.36;100.00;102509.88;10573297;28;20503;-82
2021/11/15 12:47:14;;;;;;;22.35;13.02;;;;;;;5.39;100.00;102509.16;10551888;28;20043;-83
2021/11/15 12:52:20;;;;;;;21.52;12.48;;;;;;;5.46;100.00;102504.53;10568052;28;20523;-82
2021/11/15 12:57:22;;;;;;;25.65;13.65;;;;;;;5.48;100.00;102507.19;10584721;28;20058;-82
2021/11/15 13:02:25;;;;;;;27.63;14.95;;;;;;;5.43;100.00;102503.44;10584603;28;20530;-82
2021/11/15 13:07:26;;;;;;;25.15;13.20;;;;;;;5.42;100.00;102493.97;10583270;28;20055;-82
2021/11/15 13:12:35;;;;;;;23.85;14.43;;;;;;;5.40;100.00;102485.31;10563454;28;20048;-82
2021/11/15 13:17:38;;;;;;;25.95;13.13;;;;;;;5.36;100.00;102484.22;10556487;28;20397;-82
2021/11/15 13:22:42;;;;;;;33.53;16.70;;;;;;;5.34;100.00;102488.38;10555303;28;20091;-82
2021/11/15 13:27:44;;;;;;;32.95;16.27;;;;;;;5.37;100.00;102500.50;10569111;27;20060;-82
2021/11/15 13:32:51;;;;;;;38.42;18.20;;;;;;;5.31;100.00;102489.06;10546324;28;20863;-82
2021/11/15 13:37:58;;;;;;;;;;;;;;;5.41;100.00;102487.97;10556522;28;20051;-82
2021/11/15 13:42:59;;;;;;;27.45;14.65;;;;;;;5.34;100.00;102482.34;10548744;28;20372;-81
2021/11/15 13:48:02;;;;;;;28.35;14.27;;;;;;;5.32;100.00;102487.38;10543651;28;20043;-82
2021/11/15 13:53:05;;;;;;;26.23;14.88;;;;;;;5.33;100.00;102476.31;10541056;28;20086;-82
2021/11/15 13:58:07;;;;;;;28.77;15.27;;;;;;;5.32;100.00;102480.56;10559800;28;20118;-82
2021/11/15 14:03:09;;;;;;;27.15;15.88;;;;;;;5.31;100.00;102476.22;10559741;28;20054;-82
2021/11/15 14:08:10;;;;;;;27.45;15.00;;;;;;;5.31;100.00;102486.47;10543740;28;20066;-82
2021/11/15 14:13:12;;;;;;;29.33;16.17;;;;;;;5.31;100.00;102478.78;10565098;28;20063;-82
2021/11/15 14:18:14;;;;;;;33.40;17.40;;;;;;;5.34;100.00;102475.53;10554693;28;20044;-82
2021/11/15 14:23:15;;;;;;;30.77;17.17;;;;;;;5.30;100.00;102471.00;10562996;28;20048;-82
2021/11/15 14:28:21;;;;;;;36.05;18.27;;;;;;;5.26;100.00;102457.09;10526376;28;20056;-82
2021/11/15 14:33:22;;;;;;;32.30;17.60;;;;;;;5.34;100.00;102452.44;10540529;28;20043;-82
2021/11/15 14:38:24;;;;;;;37.35;18.90;;;;;;;5.25;100.00;102457.88;10535067;28;20074;-82
2021/11/15 14:43:27;;;;;;;38.85;17.63;;;;;;;5.23;100.00;102450.91;10558061;28;20430;-82
2021/11/15 14:48:29;;;;;;;36.17;19.00;;;;;;;5.27;100.00;102440.00;10556191;28;20074;-82
2021/11/15 14:53:30;;;;;;;32.08;17.23;;;;;;;5.18;100.00;102442.03;10553775;28;20537;-82
2021/11/15 14:58:32;;;;;;;34.47;18.50;;;;;;;5.15;100.00;102447.81;10544509;28;20044;-81
2021/11/15 15:03:33;;;;;;;36.25;17.77;;;;;;;5.24;100.00;102452.66;10546944;28;20141;-82
2021/11/15 15:08:35;;;;;;;36.13;19.55;;;;;;;5.21;100.00;102457.59;10563518;28;20046;-82
2021/11/15 15:13:38;;;;;;;34.17;20.73;;;;;;;5.21;100.00;102457.59;10560618;28;20043;-82
2021/11/15 15:18:40;;;;;;;43.40;21.90;;;;;;;5.17;100.00;102445.38;10538924;28;20411;-82
2021/11/15 15:23:41;;;;;;;44.70;20.63;;;;;;;5.25;100.00;102450.19;10539369;28;20048;-82
2021/11/15 15:28:43;;;;;;;38.65;23.08;;;;;;;5.22;100.00;102441.44;10543433;28;20397;-81
2021/11/15 15:33:46;;;;;;;41.47;20.45;;;;;;;5.27;100.00;102453.72;10552573;28;20047;-82
2021/11/15 15:38:50;;;;;;;38.97;22.77;;;;;;;5.30;100.00;102459.06;10539639;28;20499;-82
2021/11/15 15:43:53;;;;;;;44.38;21.85;;;;;;;5.21;100.00;102455.91;10540622;28;20415;-82
2021/11/15 15:48:58;;;;;;;44.75;23.85;;;;;;;5.19;100.00;102459.19;10548343;28;20039;-82
2021/11/15 15:54:00;;;;;;;48.70;26.48;;;;;;;5.25;100.00;102462.13;10554985;28;20047;-82
2021/11/15 15:59:02;;;;;;;48.58;26.40;;;;;;;5.22;100.00;102456.81;10543671;28;20561;-82
2021/11/15 16:19:38;;;;;;;48.53;25.85;;;;;;;5.20;100.00;102446.44;10569772;28;20044;-82
2021/11/15 16:24:42;;;;;;;45.38;26.23;;;;;;;5.11;100.00;102447.56;10556100;28;20051;-82
2021/11/15 16:29:43;;;;;;;46.38;28.33;;;;;;;5.14;100.00;102458.88;10557938;28;20221;-82
2021/11/15 16:34:46;;;;;;;54.00;27.08;;;;;;;5.09;100.00;102461.94;10587649;28;20052;-82
2021/11/15 16:39:49;;;;;;;55.95;33.40;;;;;;;5.12;100.00;102463.03;10585134;28;20130;-82
2021/11/15 16:44:51;;;;;;;56.17;30.27;;;;;;;5.11;100.00;102460.38;10582433;28;20063;-82
2021/11/15 16:49:52;;;;;;;57.05;29.15;;;;;;;5.13;100.00;102461.38;10565869;28;20052;-82
2021/11/15 16:54:54;;;;;;;64.15;31.10;;;;;;;5.10;100.00;102466.28;10576519;28;20052;-83
2021/11/15 16:59:56;;;;;;;62.20;31.02;;;;;;;5.15;100.00;102459.78;10581194;28;20051;-82
2021/11/15 17:05:15;;;;;;;68.82;32.60;;;;;;;5.14;100.00;102464.00;10564921;28;20047;-82
2021/11/15 17:10:19;;;;;;;54.67;28.30;;;;;;;5.20;100.00;102468.66;10587074;27;20069;-82
2021/11/15 17:15:21;;;;;;;56.20;30.30;;;;;;;5.13;100.00;102463.94;10577060;28;20075;-82
2021/11/15 17:20:25;;;;;;;66.82;33.33;;;;;;;5.05;100.00;102474.59;10585509;28;20058;-82
2021/11/15 17:25:27;;;;;;;67.75;30.02;;;;;;;5.12;100.00;102480.13;10586711;28;20043;-82
2021/11/15 17:30:28;;;;;;;64.20;30.85;;;;;;;5.08;100.00;102479.03;10560244;28;20055;-82
2021/11/15 17:35:30;;;;;;;73.28;33.88;;;;;;;5.08;100.00;102490.97;10569345;28;20052;-82
2021/11/15 17:40:33;;;;;;;66.93;31.65;;;;;;;5.10;100.00;102495.38;10566434;28;20051;-82
2021/11/15 17:45:37;;;;;;;73.15;33.22;;;;;;;5.03;100.00;102500.91;10571267;28;20043;-82
2021/11/15 17:50:42;;;;;;;71.20;33.58;;;;;;;5.07;100.00;102507.16;10584612;28;20082;-82
2021/11/15 17:56:11;;;;;;;72.63;34.47;;;;;;;5.03;100.00;102508.63;10583843;28;20044;-83
2021/11/15 18:01:20;;;;;;;80.18;35.75;;;;;;;5.06;100.00;102501.13;10569734;28;20087;-83
2021/11/15 18:06:26;;;;;;;73.97;34.92;;;;;;;5.04;100.00;102503.56;10576933;28;20047;-83
2021/11/15 18:11:27;;;;;;;76.20;37.35;;;;;;;5.00;100.00;102508.44;10568309;28;20134;-83
2021/11/15 18:16:30;;;;;;;76.30;35.17;;;;;;;4.97;100.00;102516.81;10574461;28;20079;-83
2021/11/15 18:21:32;;;;;;;66.75;31.92;;;;;;;4.98;100.00;102515.13;10541686;28;20056;-83
2021/11/15 18:26:36;;;;;;;63.60;31.83;;;;;;;5.02;100.00;102505.16;10541650;28;20084;-83
2021/11/15 18:31:39;;;;;;;75.47;35.88;;;;;;;5.05;100.00;102505.38;10528887;28;20052;-83
2021/11/15 18:36:41;;;;;;;73.57;35.15;;;;;;;4.98;100.00;102499.72;10547987;28;20134;-83
2021/11/15 18:41:43;;;;;;;64.93;33.15;;;;;;;5.00;100.00;102501.63;10544808;28;20047;-83
2021/11/15 18:46:48;;;;;;;62.80;32.70;;;;;;;4.91;100.00;102495.00;10541255;28;20047;-81
2021/11/15 18:51:51;;;;;;;60.53;29.17;;;;;;;4.92;100.00;102495.09;10533227;28;20097;-81
2021/11/15 18:56:54;;;;;;;63.05;33.05;;;;;;;4.92;100.00;102501.91;10543620;28;20059;-81
2021/11/15 19:01:57;;;;;;;57.25;30.73;;;;;;;4.89;100.00;102500.06;10566703;28;20075;-82
2021/11/15 19:07:01;;;;;;;56.50;29.65;;;;;;;4.87;100.00;102499.03;10566774;28;20407;-82
2021/11/15 19:12:11;;;;;;;54.83;30.42;;;;;;;4.86;100.00;102494.72;10552668;28;20165;-82
2021/11/15 19:17:36;;;;;;;59.33;31.73;;;;;;;4.84;100.00;102500.53;10567221;28;20052;-82
2021/11/15 19:22:39;;;;;;;57.28;33.22;;;;;;;4.84;100.00;102501.44;10568777;28;20051;-82
2021/11/15 19:27:40;;;;;;;59.97;32.85;;;;;;;4.84;100.00;102497.97;10571695;28;20783;-82
2021/11/15 19:32:42;;;;;;;55.33;31.77;;;;;;;4.77;100.00;102504.38;10558020;28;20052;-82
2021/11/15 19:37:46;;;;;;;55.22;29.90;;;;;;;4.77;100.00;102497.59;10559308;28;20446;-82
2021/11/15 19:42:50;;;;;;;58.35;30.38;;;;;;;4.78;100.00;102498.47;10561554;28;20143;-82
2021/11/15 19:47:55;;;;;;;55.35;30.83;;;;;;;4.80;100.00;102486.63;10553234;28;20040;-81
2021/11/15 19:52:58;;;;;;;56.17;30.98;;;;;;;4.75;100.00;102490.56;10560542;28;20051;-82
2021/11/15 19:58:02;;;;;;;54.55;27.73;;;;;;;4.71;100.00;102492.06;10562451;28;20054;-82
2021/11/15 20:03:08;;;;;;;51.95;27.60;;;;;;;4.69;100.00;102487.59;10550162;28;20051;-82
2021/11/15 20:08:10;;;;;;;43.80;26.17;;;;;;;4.71;100.00;102486.94;10559541;28;20069;-83
2021/11/15 20:13:13;;;;;;;48.30;27.52;;;;;;;4.70;100.00;102487.69;10550699;28;20143;-83
2021/11/15 20:18:17;;;;;;;49.58;27.70;;;;;;;4.72;100.00;102490.38;10562158;28;20054;-82
2021/11/15 20:23:22;;;;;;;46.10;25.38;;;;;;;4.71;100.00;102483.47;10563812;28;20424;-82
2021/11/15 20:28:24;;;;;;;53.00;30.48;;;;;;;4.67;100.00;102478.94;10558718;28;20467;-82
2021/11/15 20:33:29;;;;;;;43.20;24.65;;;;;;;4.68;100.00;102483.28;10557476;28;20127;-82
2021/11/15 20:38:31;;;;;;;54.35;27.73;;;;;;;4.68;100.00;102485.84;10556226;28;20050;-82
2021/11/15 20:43:33;;;;;;;54.60;29.23;;;;;;;4.62;100.00;102490.56;10554223;28;20043;-83
2021/11/15 20:48:35;;;;;;;56.38;27.88;;;;;;;4.63;100.00;102484.63;10566173;28;20097;-82
2021/11/15 20:53:37;;;;;;;55.97;27.55;;;;;;;4.65;100.00;102490.75;10557227;28;20056;-83
2021/11/15 20:58:39;;;;;;;47.83;27.70;;;;;;;4.64;100.00;102499.22;10553604;28;20044;-83
2021/11/15 21:03:41;;;;;;;51.95;27.92;;;;;;;4.66;100.00;102482.28;10520941;28;20048;-83
2021/11/15 21:08:43;;;;;;;50.95;29.80;;;;;;;4.63;100.00;102476.94;10538988;28;20080;-83
2021/11/15 21:13:48;;;;;;;54.65;30.23;;;;;;;4.63;100.00;102485.53;10549207;28;20052;-83
2021/11/15 21:18:58;;;;;;;58.92;30.25;;;;;;;4.66;100.00;102484.84;10555677;28;20043;-83
2021/11/15 21:24:00;;;;;;;58.35;30.17;;;;;;;4.65;100.00;102490.75;10550647;28;20051;-82
2021/11/15 21:29:03;;;;;;;50.72;27.38;;;;;;;4.70;100.00;102492.81;10568328;28;20100;-82
2021/11/15 21:34:08;;;;;;;56.80;30.88;;;;;;;4.60;100.00;102484.47;10567051;28;20559;-83
2021/11/15 21:39:11;;;;;;;60.72;29.55;;;;;;;4.65;100.00;102485.63;10554964;28;20134;-83
2021/11/15 21:44:14;;;;;;;51.00;28.50;;;;;;;4.68;100.00;102484.16;10564353;28;20055;-83
2021/11/15 21:49:16;;;;;;;56.20;29.17;;;;;;;4.66;100.00;102483.19;10565817;28;20042;-83
2021/11/15 21:54:17;;;;;;;51.40;28.90;;;;;;;4.65;100.00;102472.81;10543276;28;20079;-83
2021/11/15 21:59:19;;;;;;;55.67;32.33;;;;;;;4.67;100.00;102474.69;10568310;28;20056;-82
2021/11/15 22:04:20;;;;;;;54.85;32.25;;;;;;;4.63;100.00;102472.72;10554632;28;20545;-83
2021/11/15 22:09:22;;;;;;;55.20;30.88;;;;;;;4.66;100.00;102470.38;10576067;28;20138;-83
2021/11/15 22:14:24;;;;;;;61.83;31.70;;;;;;;4.62;100.00;102470.06;10572399;28;20070;-83
2021/11/15 22:19:25;;;;;;;52.95;30.10;;;;;;;4.59;100.00;102472.41;10551629;28;20491;-83
2021/11/15 22:24:27;;;;;;;55.78;30.98;;;;;;;4.61;100.00;102463.16;10544806;28;20074;-83
2021/11/15 22:29:29;;;;;;;49.17;29.55;;;;;;;4.62;100.00;102470.94;10555776;28;20051;-83
2021/11/15 22:34:30;;;;;;;56.83;32.85;;;;;;;4.61;100.00;102469.19;10576807;28;20386;-83
2021/11/15 22:39:32;;;;;;;53.72;29.42;;;;;;;4.61;100.00;102463.16;10566371;28;20048;-83
2021/11/15 22:44:36;;;;;;;58.10;30.52;;;;;;;4.60;100.00;102456.28;10571001;28;20564;-83
2021/11/15 22:49:37;;;;;;;61.63;31.70;;;;;;;4.59;100.00;102451.91;10554943;28;20515;-82
2021/11/15 22:54:39;;;;;;;54.13;29.73;;;;;;;4.59;100.00;102454.47;10574306;28;20052;-82
2021/11/15 22:59:41;;;;;;;55.83;29.55;;;;;;;4.62;100.00;102450.44;10580659;28;20495;-83